createdAt,value
2023-01-09T00:03:26.550Z,2.17
2023-01-09T00:08:28.199Z,1.90
2023-01-09T00:13:29.755Z,1.83
2023-01-09T00:18:31.509Z,1.95
2023-01-09T00:23:33.141Z,1.80
2023-01-09T00:28:35.031Z,1.73
2023-01-09T00:33:41.438Z,1.67
2023-01-09T00:38:42.969Z,1.27
2023-01-09T00:43:46.653Z,1.52
2023-01-09T00:48:49.465Z,1.58
2023-01-09T00:53:51.283Z,1.20
2023-01-09T00:58:53.330Z,1.15
2023-01-09T01:03:55.594Z,1.23
2023-01-09T01:08:57.220Z,1.33
2023-01-09T01:13:58.874Z,1.38
2023-01-09T01:19:00.346Z,1.50
2023-01-09T01:24:01.886Z,1.45
2023-01-09T01:29:03.355Z,1.50
2023-01-09T01:34:04.936Z,1.35
2023-01-09T01:39:06.450Z,1.67
2023-01-09T01:44:27.902Z,1.42
2023-01-09T01:49:29.425Z,1.83
2023-01-09T01:54:32.308Z,1.23
2023-01-09T01:59:36.455Z,1.80
2023-01-09T02:04:40.500Z,1.38
2023-01-09T02:09:44.700Z,1.77
2023-01-09T02:14:47.118Z,2.25
2023-01-09T02:19:48.551Z,1.83
2023-01-09T02:25:02.350Z,2.22
2023-01-09T02:30:24.089Z,2.03
2023-01-09T02:35:37.620Z,2.75
2023-01-09T02:40:39.066Z,2.63
2023-01-09T02:45:40.580Z,3.05
2023-01-09T02:50:42.064Z,2.65
2023-01-09T02:56:05.206Z,3.13
2023-01-09T03:01:09.848Z,2.42
2023-01-09T03:06:29.587Z,2.10
2023-01-09T03:11:36.331Z,2.95
2023-01-09T03:16:38.373Z,3.70
2023-01-09T03:21:40.129Z,2.90
2023-01-09T03:26:42.029Z,2.88
2023-01-09T03:31:43.527Z,3.20
2023-01-09T03:36:45.111Z,3.00
2023-01-09T03:41:46.609Z,3.15
2023-01-09T03:46:50.201Z,3.33
2023-01-09T03:51:51.679Z,3.45
2023-01-09T03:56:53.151Z,2.70
2023-01-09T04:01:54.786Z,3.45
2023-01-09T04:06:56.490Z,3.50
2023-01-09T04:11:58.002Z,3.67
2023-01-09T04:16:59.494Z,3.85
2023-01-09T04:22:00.994Z,3.40
2023-01-09T04:27:02.962Z,4.03
2023-01-09T04:32:04.620Z,3.63
2023-01-09T04:37:06.264Z,3.13
2023-01-09T04:42:07.733Z,3.47
2023-01-09T04:47:09.214Z,3.70
2023-01-09T04:52:10.752Z,3.47
2023-01-09T04:57:12.270Z,3.35
2023-01-09T05:02:13.956Z,4.10
2023-01-09T05:07:15.745Z,3.55
2023-01-09T05:12:17.249Z,4.50
2023-01-09T05:17:18.753Z,3.53
2023-01-09T05:22:20.213Z,3.33
2023-01-09T05:27:21.767Z,4.22
2023-01-09T05:32:23.318Z,3.70
2023-01-09T05:37:24.868Z,4.03
2023-01-09T05:42:26.440Z,4.18
2023-01-09T05:47:28.128Z,4.50
2023-01-09T05:52:29.674Z,4.53
2023-01-09T05:57:31.185Z,3.97
2023-01-09T06:02:32.732Z,4.30
2023-01-09T06:07:36.715Z,4.35
2023-01-09T06:12:38.331Z,4.45
2023-01-09T06:17:39.859Z,4.85
2023-01-09T06:22:41.342Z,4.70
2023-01-09T06:27:42.913Z,4.43
2023-01-09T06:32:44.395Z,5.07
2023-01-09T06:37:46.632Z,6.00
2023-01-09T06:42:49.385Z,5.38
2023-01-09T06:47:50.886Z,5.22
2023-01-09T06:52:52.398Z,5.03
2023-01-09T06:57:53.942Z,4.97
2023-01-09T07:02:55.401Z,4.30
2023-01-09T07:07:59.902Z,4.88
2023-01-09T07:13:01.431Z,4.50
2023-01-09T07:18:03.474Z,4.22
2023-01-09T07:23:04.944Z,4.93
2023-01-09T07:28:06.437Z,4.53
2023-01-09T07:33:08.018Z,4.10
2023-01-09T07:38:09.478Z,3.45
2023-01-09T07:43:11.023Z,3.83
2023-01-09T07:48:12.501Z,3.90
2023-01-09T07:53:14.040Z,3.42
2023-01-09T07:58:15.555Z,3.45
2023-01-09T08:03:17.045Z,3.58
2023-01-09T08:08:18.989Z,3.58
2023-01-09T08:13:20.782Z,4.15
2023-01-09T08:18:22.290Z,4.72
2023-01-09T08:23:23.786Z,3.95
2023-01-09T08:28:25.262Z,3.22
2023-01-09T08:33:27.194Z,3.22
2023-01-09T08:38:28.777Z,3.97
2023-01-09T08:43:48.914Z,4.03
2023-01-09T08:48:50.434Z,4.90
2023-01-09T08:53:51.935Z,5.15
2023-01-09T08:58:53.434Z,4.35
2023-01-09T09:03:55.316Z,4.82
2023-01-09T09:08:56.917Z,4.78
2023-01-09T09:13:58.435Z,4.72
2023-01-09T09:18:59.935Z,5.05
2023-01-09T09:24:01.403Z,4.45
2023-01-09T09:29:02.887Z,4.90
2023-01-09T09:34:05.215Z,4.72
2023-01-09T09:39:07.562Z,4.07
2023-01-09T09:44:27.551Z,4.85
2023-01-09T09:49:32.572Z,4.47
2023-01-09T09:54:38.548Z,4.28
2023-01-09T09:59:41.862Z,5.40
2023-01-09T10:04:51.756Z,5.03
2023-01-09T10:09:55.112Z,4.93
2023-01-09T10:15:00.388Z,5.07
2023-01-09T10:20:10.720Z,5.63
2023-01-09T10:25:21.098Z,5.30
2023-01-09T10:30:24.279Z,4.75
2023-01-09T10:35:47.642Z,5.13
2023-01-09T10:41:04.761Z,5.00
2023-01-09T10:46:10.231Z,4.32
2023-01-09T10:51:18.209Z,4.88
2023-01-09T10:56:24.550Z,5.07
2023-01-09T11:01:27.638Z,4.10
2023-01-09T11:06:45.798Z,4.68
2023-01-09T11:11:47.364Z,5.03
2023-01-09T11:16:53.351Z,4.88
2023-01-09T11:22:06.738Z,4.43
2023-01-09T11:27:14.418Z,4.68
2023-01-09T11:32:22.130Z,4.95
2023-01-09T11:37:26.219Z,4.95
2023-01-09T11:42:47.152Z,5.45
2023-01-09T11:47:48.682Z,4.93
2023-01-09T11:53:05.224Z,4.20
2023-01-09T11:58:12.342Z,4.40
2023-01-09T12:03:19.789Z,4.60
2023-01-09T12:08:24.319Z,4.97
2023-01-09T12:13:37.719Z,3.83
2023-01-09T12:18:48.343Z,4.20
2023-01-09T12:23:49.854Z,4.70
2023-01-09T12:29:04.892Z,5.03
2023-01-09T12:34:06.334Z,4.30
2023-01-09T12:39:10.926Z,4.28
2023-01-09T12:44:35.642Z,4.65
2023-01-09T12:49:42.424Z,5.22
2023-01-09T12:55:04.949Z,4.32
2023-01-09T13:00:15.276Z,4.38
2023-01-09T13:05:22.475Z,4.57
2023-01-09T13:10:33.248Z,4.97
2023-01-09T13:15:53.074Z,4.35
2023-01-09T13:20:58.726Z,4.77
2023-01-09T13:26:02.057Z,5.20
2023-01-09T13:31:17.078Z,5.65
2023-01-09T13:36:21.338Z,5.18
2023-01-09T13:41:41.269Z,5.78
2023-01-09T13:46:44.436Z,5.47
2023-01-09T13:51:48.689Z,6.22
2023-01-09T13:57:08.713Z,5.97
2023-01-09T14:02:33.154Z,6.00
2023-01-09T14:07:35.715Z,6.40
2023-01-09T14:12:41.779Z,6.93
2023-01-09T14:17:43.297Z,7.38
2023-01-09T14:22:55.938Z,5.78
2023-01-09T14:28:11.572Z,5.78
2023-01-09T14:33:19.425Z,6.20
2023-01-09T14:38:38.437Z,7.40
2023-01-09T14:43:49.559Z,7.72
2023-01-09T14:48:51.056Z,8.13
2023-01-09T14:53:53.216Z,9.48
2023-01-09T14:59:04.396Z,8.73
2023-01-09T15:04:18.822Z,8.93
2023-01-09T15:09:23.457Z,8.52
2023-01-09T15:14:24.891Z,9.30
2023-01-09T15:19:26.816Z,9.07
2023-01-09T15:24:29.908Z,6.57
2023-01-09T15:29:31.419Z,8.63
2023-01-09T15:34:33.764Z,7.15
2023-01-09T15:39:36.912Z,7.72
2023-01-09T15:44:39.405Z,6.60
2023-01-09T15:49:40.974Z,6.95
2023-01-09T15:54:45.931Z,6.93
2023-01-09T15:59:47.429Z,7.97
2023-01-09T16:04:49.372Z,7.03
2023-01-09T16:09:53.876Z,7.70
2023-01-09T16:14:59.395Z,7.38
2023-01-09T16:20:14.739Z,8.10
2023-01-09T16:25:35.100Z,8.82
2023-01-09T16:30:36.573Z,8.55
2023-01-09T16:35:38.042Z,7.63
2023-01-09T16:40:39.557Z,7.78
2023-01-09T16:45:41.670Z,8.27
2023-01-09T16:50:44.480Z,8.18
2023-01-09T16:55:46.259Z,7.95
2023-01-09T17:00:48.149Z,8.45
2023-01-09T17:05:51.187Z,7.25
2023-01-09T17:10:53.729Z,8.65
2023-01-09T17:15:56.087Z,8.73
2023-01-09T17:20:58.817Z,7.53
2023-01-09T17:26:19.033Z,7.82
2023-01-09T17:31:20.605Z,9.75
2023-01-09T17:36:25.311Z,7.82
2023-01-09T17:41:30.819Z,7.85
2023-01-09T17:46:33.704Z,7.65
2023-01-09T17:51:35.314Z,8.68
2023-01-09T17:56:38.112Z,8.52
2023-01-09T18:01:40.092Z,6.70
2023-01-09T18:06:41.879Z,7.30
2023-01-09T18:11:44.084Z,7.15
2023-01-09T18:16:45.660Z,7.18
2023-01-09T18:21:47.144Z,7.45
2023-01-09T18:26:48.600Z,6.53
2023-01-09T18:31:51.723Z,7.38
2023-01-09T18:36:53.305Z,7.15
2023-01-09T18:41:54.821Z,6.25
2023-01-09T18:46:56.310Z,6.65
2023-01-09T18:51:57.868Z,7.13
2023-01-09T18:56:59.373Z,6.03
2023-01-09T19:02:02.224Z,6.53
2023-01-09T19:07:04.269Z,6.40
2023-01-09T19:12:05.902Z,5.32
2023-01-09T19:17:07.418Z,5.70
2023-01-09T19:22:08.932Z,6.85
2023-01-09T19:27:10.399Z,6.13
2023-01-09T19:32:13.932Z,8.15
2023-01-09T19:37:16.069Z,6.85
2023-01-09T19:42:18.063Z,5.78
2023-01-09T19:47:19.525Z,6.65
2023-01-09T19:52:21.179Z,6.47
2023-01-09T19:57:22.802Z,6.82
2023-01-09T20:02:24.303Z,5.82
2023-01-09T20:07:25.961Z,3.92
2023-01-09T20:12:27.534Z,4.28
2023-01-09T20:17:29.002Z,4.22
2023-01-09T20:22:30.488Z,4.13
2023-01-09T20:27:31.966Z,4.03
2023-01-09T20:32:33.551Z,3.38
2023-01-09T20:37:35.103Z,3.50
2023-01-09T20:42:36.608Z,2.10
2023-01-09T20:47:38.114Z,2.58
2023-01-09T20:52:39.658Z,2.88
2023-01-09T20:57:41.132Z,2.10
2023-01-09T21:02:42.661Z,1.92
2023-01-09T21:07:44.215Z,1.90
2023-01-09T21:12:45.725Z,2.08
2023-01-09T21:17:49.695Z,2.40
2023-01-09T21:22:52.071Z,1.67
2023-01-09T21:27:53.604Z,2.22
2023-01-09T21:32:55.070Z,2.53
2023-01-09T21:37:57.638Z,2.22
2023-01-09T21:43:17.790Z,2.00
2023-01-09T21:48:19.462Z,2.03
2023-01-09T21:53:20.940Z,1.77
2023-01-09T21:58:22.475Z,1.50
2023-01-09T22:03:23.938Z,1.25
2023-01-09T22:08:25.626Z,1.45
2023-01-09T22:13:27.762Z,1.27
2023-01-09T22:18:29.217Z,1.30
2023-01-09T22:23:30.743Z,1.60
2023-01-09T22:28:32.228Z,1.40
2023-01-09T22:33:33.756Z,1.08
2023-01-09T22:38:35.286Z,0.98
2023-01-09T22:43:36.817Z,1.25
2023-01-09T22:48:38.799Z,1.23
2023-01-09T22:53:40.593Z,1.45
2023-01-09T22:58:42.200Z,1.30
2023-01-09T23:03:43.650Z,1.67
2023-01-09T23:08:46.174Z,2.03
2023-01-09T23:13:47.634Z,1.73
2023-01-09T23:18:49.115Z,1.67
2023-01-09T23:23:50.557Z,1.70
2023-01-09T23:28:52.034Z,1.98
2023-01-09T23:33:53.669Z,1.83
2023-01-09T23:38:56.963Z,2.13
2023-01-09T23:43:58.437Z,1.73
2023-01-09T23:48:59.912Z,1.88
2023-01-09T23:54:01.419Z,2.10
2023-01-09T23:59:04.588Z,1.42
